Oakland, MD

10:06 AM EDT on September 20, 2017 (GMT -0400)
Oakland

Weather History for K2G4 - December, 2012

Change the Weather History Date:

Wednesday, December 19, 2012

  Actual Average (KMGW) Record (KMGW)
Temperature  
Mean Temperature 32 °F -  
Max Temperature 33 °F 41 °F 64 °F (1957)
Min Temperature 32 °F 25 °F 1 °F (1975)
Degree Days  
Heating Degree Days 32    
Moisture  
Dew Point 33 °F    
Average Humidity 99    
Maximum Humidity 100    
Minimum Humidity 93    
Precipitation  
Precipitation 0.00 in - - ()
Sea Level Pressure  
Sea Level Pressure 29.92 in    
Wind  
Wind Speed 10 mph (WSW)    
Max Wind Speed 18 mph    
Max Gust Speed 33 mph    
Visibility 6 miles    
Events Fog    
Averages and records for this station are not official NWS values.
T = Trace of Precipitation, MM = Missing Value Source: NWS Daily Summary

Daily Weather History Graph

Daily Weather History Graph

Search for Another Location

Airport or City:

Trip Planner

Search our weather history database for the weather conditions in past years. The results will help you decide how hot, cold, wet, or windy it might be!

Date:

Astronomy

Dec. 19, 2012 Rise Set
Actual Time 7:33 AM EST 4:55 PM EST
Civil Twilight 7:03 AM EST 5:26 PM EST
Nautical Twilight 6:29 AM EST 6:00 PM EST
Astronomical Twilight 5:56 AM EST 6:32 PM EST
Moon 11:43 AM EST (12/19) No Moon Set
Length of Visible Light 10h 23m
Length of Day
9h 22m
Waxing Crescent, 45% of the Moon is Illuminated
Dec 19
Waxing Crescent
Dec 20
First Quarter
Dec 28
Full
Jan 4
Last Quarter
Jan 11
New

Hourly Weather History & Observations

Time (EST) Temp. Windchill Dew Point Humidity Pressure Visibility Wind Dir Wind Speed Gust Speed Precip Events Conditions
12:15 AM 32.0 °F 24.2 °F 32.0 °F 100% 29.77 in 10.0 mi WSW 9.2 mph - N/A   Overcast
12:40 AM 32.0 °F 25.6 °F 32.0 °F 100% 29.76 in 10.0 mi West 6.9 mph 20.7 mph N/A   Overcast
1:00 AM 32.0 °F 24.8 °F 32.0 °F 100% 29.75 in 10.0 mi SW 8.1 mph - N/A   Overcast
1:20 AM 32.0 °F 24.8 °F 32.0 °F 100% 29.74 in 10.0 mi SW 8.1 mph - N/A   Overcast
1:40 AM 32.0 °F 24.2 °F 32.0 °F 100% 29.72 in 10.0 mi SSW 9.2 mph - N/A   Overcast
2:05 AM 32.0 °F 23.0 °F 32.0 °F 100% 29.73 in 10.0 mi SW 11.5 mph 17.3 mph N/A   Overcast
2:25 AM 32.0 °F 23.6 °F 32.0 °F 100% 29.74 in 10.0 mi SW 10.4 mph 18.4 mph N/A   Overcast
2:45 AM 33.8 °F 25.8 °F 32.0 °F 93% 29.73 in 10.0 mi WSW 10.4 mph 19.6 mph N/A   Overcast
3:05 AM 33.8 °F 23.5 °F 32.0 °F 93% 29.73 in 10.0 mi WSW 16.1 mph 27.6 mph N/A   Overcast
3:30 AM 33.8 °F 23.2 °F 32.0 °F 93% 29.73 in 10.0 mi WSW 17.3 mph 33.4 mph N/A   Overcast
3:50 AM 33.8 °F 22.8 °F 32.0 °F 93% 29.74 in 10.0 mi WSW 18.4 mph 28.8 mph N/A   Overcast
4:10 AM 33.8 °F 23.9 °F 32.0 °F 93% 29.74 in 10.0 mi West 15.0 mph 24.2 mph N/A   Overcast
4:30 AM 33.8 °F 23.5 °F 32.0 °F 93% 29.75 in 10.0 mi West 16.1 mph 24.2 mph N/A   Overcast
4:55 AM 33.8 °F 23.9 °F 33.8 °F 100% 29.76 in 10.0 mi West 15.0 mph 21.9 mph N/A   Overcast
5:15 AM 33.8 °F 25.3 °F 33.8 °F 100% 29.77 in 10.0 mi West 11.5 mph 23.0 mph N/A   Overcast
5:35 AM 33.8 °F 24.3 °F 33.8 °F 100% 29.78 in 10.0 mi West 13.8 mph 23.0 mph N/A   Overcast
5:55 AM 33.8 °F 25.8 °F 33.8 °F 100% 29.79 in 10.0 mi West 10.4 mph 23.0 mph N/A   Overcast
6:20 AM 33.8 °F 25.3 °F 33.8 °F 100% 29.80 in 10.0 mi West 11.5 mph 19.6 mph N/A   Overcast
6:40 AM 33.8 °F 25.3 °F 33.8 °F 100% 29.82 in 10.0 mi West 11.5 mph 19.6 mph N/A   Overcast
7:00 AM 33.8 °F 25.3 °F 33.8 °F 100% 29.83 in 10.0 mi West 11.5 mph 18.4 mph N/A   Overcast
7:20 AM 33.8 °F 25.8 °F 33.8 °F 100% 29.85 in 10.0 mi West 10.4 mph 16.1 mph N/A   Overcast
7:45 AM 33.8 °F 26.4 °F 33.8 °F 100% 29.86 in 10.0 mi West 9.2 mph - N/A   Overcast
8:05 AM 33.8 °F 27.0 °F 33.8 °F 100% 29.87 in 7.0 mi West 8.1 mph 16.1 mph N/A   Overcast
8:25 AM 33.8 °F 27.0 °F 33.8 °F 100% 29.89 in 5.0 mi West 8.1 mph - N/A   Overcast
8:45 AM 33.8 °F 25.8 °F 33.8 °F 100% 29.90 in 4.0 mi West 10.4 mph - N/A   Overcast
9:10 AM 33.8 °F 27.7 °F 33.8 °F 100% 29.90 in 4.0 mi WSW 6.9 mph - N/A   Overcast
9:30 AM 33.8 °F 27.0 °F 33.8 °F 100% 29.90 in 3.0 mi WSW 8.1 mph - N/A   Overcast
9:50 AM 33.8 °F 24.8 °F 33.8 °F 100% 29.92 in 2.0 mi WSW 12.7 mph 16.1 mph N/A   Overcast
10:10 AM 33.8 °F 26.4 °F 33.8 °F 100% 29.93 in 1.2 mi WSW 9.2 mph - N/A   Overcast
10:35 AM 33.8 °F 25.8 °F 33.8 °F 100% 29.94 in 0.8 mi West 10.4 mph 18.4 mph N/A   Overcast
10:55 AM 33.8 °F 25.8 °F 33.8 °F 100% 29.94 in 0.2 mi West 10.4 mph - N/A Fog Fog
11:15 AM 33.8 °F 25.8 °F 33.8 °F 100% 29.94 in 0.2 mi WSW 10.4 mph - N/A Fog Fog
11:35 AM 33.8 °F 25.3 °F 33.8 °F 100% 29.95 in 0.2 mi West 11.5 mph - N/A Fog Fog
12:00 PM 33.8 °F 25.3 °F 33.8 °F 100% 29.94 in 0.2 mi West 11.5 mph 16.1 mph N/A Fog Fog
12:20 PM 33.8 °F 24.3 °F 33.8 °F 100% 29.94 in 0.2 mi West 13.8 mph 18.4 mph N/A Fog Fog
1:00 PM 33.8 °F 26.4 °F 33.8 °F 100% 29.94 in 0.2 mi West 9.2 mph 17.3 mph N/A Fog Fog
1:45 PM 33.8 °F 24.8 °F 33.8 °F 100% 29.96 in 0.2 mi West 12.7 mph 20.7 mph N/A Fog Fog
2:05 PM 33.8 °F 23.9 °F 33.8 °F 100% 29.97 in 0.2 mi West 15.0 mph 20.7 mph N/A Fog Fog
2:25 PM 33.8 °F 24.3 °F 33.8 °F 100% 29.97 in 1.5 mi West 13.8 mph 21.9 mph N/A   Overcast
2:50 PM 33.8 °F 23.9 °F 33.8 °F 100% 29.98 in 4.0 mi West 15.0 mph 24.2 mph N/A   Overcast
3:10 PM 33.8 °F 25.8 °F 33.8 °F 100% 29.99 in 4.0 mi West 10.4 mph 19.6 mph N/A   Overcast
3:30 PM 33.8 °F 25.3 °F 33.8 °F 100% 29.99 in 5.0 mi WNW 11.5 mph - N/A   Overcast
3:50 PM 33.8 °F 27.0 °F 33.8 °F 100% 29.99 in 5.0 mi WNW 8.1 mph 16.1 mph N/A   Overcast
4:15 PM 33.8 °F 26.4 °F 33.8 °F 100% 30.01 in 7.0 mi West 9.2 mph - N/A   Mostly Cloudy
4:55 PM 33.8 °F 27.0 °F 33.8 °F 100% 30.02 in 5.0 mi West 8.1 mph - N/A   Mostly Cloudy
5:15 PM 33.8 °F 26.4 °F 33.8 °F 100% 30.03 in 7.0 mi West 9.2 mph 16.1 mph N/A   Mostly Cloudy
5:40 PM 33.8 °F 27.0 °F 33.8 °F 100% 30.04 in 7.0 mi West 8.1 mph - N/A   Clear
6:00 PM 33.8 °F 27.7 °F 33.8 °F 100% 30.04 in 7.0 mi West 6.9 mph - N/A   Scattered Clouds
6:20 PM 33.8 °F 27.7 °F 33.8 °F 100% 30.05 in 7.0 mi West 6.9 mph - N/A   Mostly Cloudy
6:40 PM 33.8 °F 27.7 °F 33.8 °F 100% 30.06 in 7.0 mi West 6.9 mph - N/A   Overcast
7:05 PM 33.8 °F 27.7 °F 33.8 °F 100% 30.06 in 5.0 mi West 6.9 mph - N/A   Overcast
7:25 PM 33.8 °F 27.0 °F 33.8 °F 100% 30.08 in 4.0 mi WSW 8.1 mph - N/A   Overcast
7:45 PM 33.8 °F 27.7 °F 33.8 °F 100% 30.08 in 5.0 mi WSW 6.9 mph - N/A   Overcast
8:05 PM 33.8 °F 27.0 °F 33.8 °F 100% 30.09 in 5.0 mi WSW 8.1 mph - N/A   Overcast
8:30 PM 33.8 °F 27.7 °F 33.8 °F 100% 30.10 in 5.0 mi WSW 6.9 mph - N/A   Overcast
8:50 PM 33.8 °F 27.0 °F 33.8 °F 100% 30.09 in 7.0 mi WSW 8.1 mph - N/A   Overcast
9:10 PM 33.8 °F 28.6 °F 33.8 °F 100% 30.10 in 7.0 mi WSW 5.8 mph - N/A   Overcast
9:30 PM 33.8 °F 30.8 °F 33.8 °F 100% 30.10 in 7.0 mi WSW 3.5 mph - N/A   Overcast
9:55 PM 32.0 °F - 32.0 °F 100% 30.10 in 7.0 mi Calm Calm - N/A   Mostly Cloudy
10:15 PM 32.0 °F - 32.0 °F 100% 30.10 in 7.0 mi Calm Calm - N/A   Scattered Clouds
10:35 PM 32.0 °F 28.7 °F 32.0 °F 100% 30.09 in 7.0 mi SSW 3.5 mph - N/A   Scattered Clouds
10:55 PM 32.0 °F 28.7 °F 32.0 °F 100% 30.09 in 7.0 mi SSE 3.5 mph - N/A   Scattered Clouds
11:20 PM 32.0 °F - 32.0 °F 100% 30.08 in 5.0 mi Calm Calm - N/A   Clear
11:40 PM 32.0 °F 28.7 °F 32.0 °F 100% 30.08 in 5.0 mi SE 3.5 mph - N/A   Clear